Darstellungsparameter: Aktuell verwendete Einstellungen:
Skalierung der Graphiken ... ?
xyx+y,   Skalierungsfaktor:      Skalierung: Modus: x, Faktor: 1
Darstellungszeitraum ... ?
Vom - - bis: - -   Zeitraum: 17.11.2020 - 19.11.2020
Min/Max/Avg-Anzeige ... ?
Zeige MMA aktuell
Zeige MMA Monat
Zeige MMA alles
Zeige --A aktuell
Zeige --A Monat
Zeige --A alles
Keine MMA-Anzeige
MMA:
Minimum Maximum Average (ber die Originaldaten)
MMA-Basis: 23.02.2003 - 20.11.2020
Quicknavigation für Darstellung... ?
Tage:      1T, 2T, 3T, 5T -1T -2T -3T -5T +1T +2T +3T +5T
Wochen: 1W, 2W, 3W -1W -2W -3W +1W +2W +3W
Monate: 1M, 3M, 6M -1M -3M -6M +1M +3M +6M
Jahre:    1J, 3J, 5J, 10J -1J -3J -5J -10J +1J +3J +5J +10J
Nutze für die Darstellung ... ?
Originaldaten oder Mittelwerte auf ...
Stundenbasis Tagesbasis Wochenbasis
Monatsbasis Jahresbasis      Datenbasis: Original-Daten
Darstellen als:
Statistik (Auto) Statistik J:M      Darstellung:
Zur Graphik,    zurück zur Übersicht aller Sensoren.
 
Tabellarische Datenbersicht: ?
 
Sensor: Nr:Datum:Temp:Abs-Feuchte:Windchill:Wind:
Aussen-T/F 1 17-11-2020 00:00:00 9.3 C 8.09 g/m*3 7.33 C 12.9 km/h
2 17-11-2020 00:05:00 9.4 C 8.14 g/m*3 9.4 C 4.8 km/h
3 17-11-2020 00:10:00 9.4 C 8.14 g/m*3 9.4 C 3.2 km/h
4 17-11-2020 00:15:00 9.4 C 8.14 g/m*3 8.28 C 8.1 km/h
5 17-11-2020 00:20:00 9.3 C 8.09 g/m*3 9.3 C 0 km/h
6 17-11-2020 00:25:00 9.2 C 8.04 g/m*3 9.2 C 4.8 km/h
7 17-11-2020 00:30:00 9.2 C 8.04 g/m*3 9.2 C 3.2 km/h
8 17-11-2020 00:35:00 9.3 C 8.09 g/m*3 7.12 C 14.5 km/h
9 17-11-2020 00:40:00 9.3 C 8.09 g/m*3 8.16 C 8.1 km/h
10 17-11-2020 00:45:00 9.4 C 8.14 g/m*3 7.46 C 12.9 km/h
11 17-11-2020 00:50:00 9.6 C 8.15 g/m*3 8.52 C 8.1 km/h
12 17-11-2020 00:55:00 9.7 C 8.2 g/m*3 8.63 C 8.1 km/h
13 17-11-2020 01:00:00 9.8 C 8.26 g/m*3 9.8 C 3.2 km/h
14 17-11-2020 01:05:00 9.8 C 8.26 g/m*3 8.18 C 11.3 km/h
15 17-11-2020 01:10:00 10 C 8.27 g/m*3 8.99 C 8.1 km/h
16 17-11-2020 01:15:00 10 C 8.27 g/m*3 10 C 4.8 km/h
17 17-11-2020 01:20:00 10.1 C 8.32 g/m*3 10.1 C 1.6 km/h
18 17-11-2020 01:25:00 10 C 8.27 g/m*3 10 C 4.8 km/h
19 17-11-2020 01:30:00 10 C 8.27 g/m*3 10 C 4.8 km/h
20 17-11-2020 01:35:00 10 C 8.27 g/m*3 8.99 C 8.1 km/h
21 17-11-2020 01:40:00 10.1 C 8.32 g/m*3 8.8 C 9.7 km/h
22 17-11-2020 01:45:00 10.1 C 8.23 g/m*3 8.54 C 11.3 km/h
23 17-11-2020 01:50:00 10.2 C 8.28 g/m*3 9.6 C 6.4 km/h
24 17-11-2020 01:55:00 10.2 C 8.28 g/m*3 9.22 C 8.1 km/h
25 17-11-2020 02:00:00 10.2 C 8.28 g/m*3 8.92 C 9.7 km/h
Sensor: Nr:Datum:Temp:Abs-Feuchte:Windchill:Wind:
Aussen-T/F 26 17-11-2020 02:05:00 10.3 C 8.33 g/m*3 8.78 C 11.3 km/h
27 17-11-2020 02:10:00 10.3 C 8.33 g/m*3 8.55 C 12.9 km/h
28 17-11-2020 02:15:00 10.4 C 8.38 g/m*3 9.16 C 9.7 km/h
29 17-11-2020 02:20:00 10.4 C 8.38 g/m*3 8.47 C 14.5 km/h
30 17-11-2020 02:25:00 10.4 C 8.38 g/m*3 8.9 C 11.3 km/h
31 17-11-2020 02:30:00 10.5 C 8.44 g/m*3 9.57 C 8.1 km/h
32 17-11-2020 02:35:00 10.6 C 8.49 g/m*3 9.14 C 11.3 km/h
33 17-11-2020 02:40:00 10.6 C 8.49 g/m*3 9.14 C 11.3 km/h
34 17-11-2020 02:45:00 10.6 C 8.49 g/m*3 10.6 C 4.8 km/h
35 17-11-2020 02:50:00 10.5 C 8.44 g/m*3 9.02 C 11.3 km/h
36 17-11-2020 02:55:00 10.5 C 8.44 g/m*3 9.57 C 8.1 km/h
37 17-11-2020 03:00:00 10.5 C 8.44 g/m*3 8.8 C 12.9 km/h
38 17-11-2020 03:05:00 10.6 C 8.49 g/m*3 9.14 C 11.3 km/h
39 17-11-2020 03:10:00 10.6 C 8.39 g/m*3 9.4 C 9.7 km/h
40 17-11-2020 03:15:00 10.6 C 8.39 g/m*3 9.14 C 11.3 km/h
41 17-11-2020 03:20:00 10.6 C 8.39 g/m*3 9.4 C 9.7 km/h
42 17-11-2020 03:25:00 10.6 C 8.39 g/m*3 9.14 C 11.3 km/h
43 17-11-2020 03:30:00 10.5 C 8.34 g/m*3 9.95 C 6.4 km/h
44 17-11-2020 03:35:00 10.6 C 8.49 g/m*3 9.4 C 9.7 km/h
45 17-11-2020 03:40:00 10.6 C 8.39 g/m*3 9.14 C 11.3 km/h
46 17-11-2020 03:45:00 10.6 C 8.49 g/m*3 9.4 C 9.7 km/h
47 17-11-2020 03:50:00 10.6 C 8.39 g/m*3 9.14 C 11.3 km/h
48 17-11-2020 03:55:00 10.7 C 8.45 g/m*3 8.48 C 17.7 km/h
49 17-11-2020 04:00:00 10.7 C 8.45 g/m*3 9.52 C 9.7 km/h
50 17-11-2020 04:05:00 10.7 C 8.45 g/m*3 9.04 C 12.9 km/h
Sensor: Nr:Datum:Temp:Abs-Feuchte:Windchill:Wind:
Aussen-T/F 51 17-11-2020 04:10:00 10.6 C 8.39 g/m*3 9.4 C 9.7 km/h
52 17-11-2020 04:15:00 10.6 C 8.49 g/m*3 8.53 C 16.1 km/h
53 17-11-2020 04:20:00 10.6 C 8.49 g/m*3 9.4 C 9.7 km/h
54 17-11-2020 04:25:00 10.6 C 8.49 g/m*3 9.14 C 11.3 km/h
55 17-11-2020 04:30:00 10.7 C 8.55 g/m*3 9.04 C 12.9 km/h
56 17-11-2020 04:35:00 10.7 C 8.45 g/m*3 9.26 C 11.3 km/h
57 17-11-2020 04:40:00 10.7 C 8.45 g/m*3 9.52 C 9.7 km/h
58 17-11-2020 04:45:00 10.7 C 8.45 g/m*3 9.26 C 11.3 km/h
59 17-11-2020 04:50:00 10.8 C 8.5 g/m*3 9.93 C 8.1 km/h
60 17-11-2020 04:55:00 10.8 C 8.5 g/m*3 8.96 C 14.5 km/h
61 17-11-2020 05:00:00 10.8 C 8.5 g/m*3 10.29 C 6.4 km/h
62 17-11-2020 05:05:00 10.8 C 8.5 g/m*3 9.64 C 9.7 km/h
63 17-11-2020 05:10:00 10.7 C 8.45 g/m*3 9.52 C 9.7 km/h
64 17-11-2020 05:15:00 10.7 C 8.45 g/m*3 8.65 C 16.1 km/h
65 17-11-2020 05:20:00 10.8 C 8.5 g/m*3 8.96 C 14.5 km/h
66 17-11-2020 05:25:00 10.8 C 8.5 g/m*3 8.96 C 14.5 km/h
67 17-11-2020 05:30:00 10.8 C 8.5 g/m*3 9.16 C 12.9 km/h
68 17-11-2020 05:35:00 10.8 C 8.5 g/m*3 9.93 C 8.1 km/h
69 17-11-2020 05:40:00 10.8 C 8.5 g/m*3 10.29 C 6.4 km/h
70 17-11-2020 05:45:00 10.7 C 8.55 g/m*3 9.52 C 9.7 km/h
71 17-11-2020 05:50:00 10.6 C 8.59 g/m*3 9.14 C 11.3 km/h
72 17-11-2020 05:55:00 10.5 C 8.53 g/m*3 8.8 C 12.9 km/h
73 17-11-2020 06:00:00 10.4 C 8.58 g/m*3 8.9 C 11.3 km/h
74 17-11-2020 06:05:00 10.3 C 8.52 g/m*3 10.3 C 4.8 km/h
75 17-11-2020 06:10:00 10.3 C 8.52 g/m*3 9.34 C 8.1 km/h
Sensor: Nr:Datum:Temp:Abs-Feuchte:Windchill:Wind:
Aussen-T/F 76 17-11-2020 06:15:00 10.3 C 8.52 g/m*3 8.34 C 14.5 km/h
77 17-11-2020 06:20:00 10.4 C 8.48 g/m*3 9.16 C 9.7 km/h
78 17-11-2020 06:25:00 10.4 C 8.48 g/m*3 8.9 C 11.3 km/h
79 17-11-2020 06:30:00 10.4 C 8.48 g/m*3 9.46 C 8.1 km/h
80 17-11-2020 06:35:00 10.5 C 8.44 g/m*3 9.02 C 11.3 km/h
81 17-11-2020 06:40:00 10.6 C 8.49 g/m*3 8.71 C 14.5 km/h
82 17-11-2020 06:45:00 10.6 C 8.49 g/m*3 8.71 C 14.5 km/h
83 17-11-2020 06:50:00 10.6 C 8.39 g/m*3 9.69 C 8.1 km/h
84 17-11-2020 06:55:00 10.6 C 8.49 g/m*3 10.6 C 4.8 km/h
85 17-11-2020 07:00:00 10.6 C 8.39 g/m*3 10.06 C 6.4 km/h
86 17-11-2020 07:05:00 10.6 C 8.39 g/m*3 10.6 C 3.2 km/h
87 17-11-2020 07:10:00 10.6 C 8.39 g/m*3 9.69 C 8.1 km/h
88 17-11-2020 07:15:00 10.6 C 8.39 g/m*3 10.6 C 4.8 km/h
89 17-11-2020 07:20:00 10.6 C 8.39 g/m*3 10.6 C 1.6 km/h
90 17-11-2020 07:25:00 10.6 C 8.39 g/m*3 10.6 C 1.6 km/h
91 17-11-2020 07:30:00 10.6 C 8.39 g/m*3 10.6 C 3.2 km/h
92 17-11-2020 07:35:00 10.6 C 8.39 g/m*3 10.6 C 4.8 km/h
93 17-11-2020 07:40:00 10.6 C 8.39 g/m*3 9.69 C 8.1 km/h
94 17-11-2020 07:45:00 10.6 C 8.39 g/m*3 9.14 C 11.3 km/h
95 17-11-2020 07:50:00 10.6 C 8.39 g/m*3 9.14 C 11.3 km/h
96 17-11-2020 07:55:00 10.7 C 8.45 g/m*3 10.7 C 4.8 km/h
97 17-11-2020 08:00:00 10.7 C 8.45 g/m*3 9.81 C 8.1 km/h
98 17-11-2020 08:05:00 10.6 C 8.39 g/m*3 10.6 C 4.8 km/h
99 17-11-2020 08:10:00 10.6 C 8.39 g/m*3 10.6 C 3.2 km/h
100 17-11-2020 08:15:00 10.6 C 8.39 g/m*3 9.69 C 8.1 km/h
Sensor: Nr:Datum:Temp:Abs-Feuchte:Windchill:Wind:
Aussen-T/F 101 17-11-2020 08:20:00 10.7 C 8.45 g/m*3 9.81 C 8.1 km/h
102 17-11-2020 08:25:00 10.7 C 8.45 g/m*3 10.7 C 4.8 km/h
103 17-11-2020 08:30:00 10.7 C 8.45 g/m*3 9.81 C 8.1 km/h
104 17-11-2020 08:35:00 10.7 C 8.45 g/m*3 10.7 C 4.8 km/h
105 17-11-2020 08:40:00 10.7 C 8.45 g/m*3 9.81 C 8.1 km/h
106 17-11-2020 08:45:00 10.8 C 8.5 g/m*3 10.8 C 4.8 km/h
107 17-11-2020 08:50:00 10.8 C 8.5 g/m*3 9.93 C 8.1 km/h
108 17-11-2020 08:55:00 10.8 C 8.5 g/m*3 10.8 C 4.8 km/h
109 17-11-2020 09:00:00 10.8 C 8.5 g/m*3 10.8 C 1.6 km/h
110 17-11-2020 09:05:00 10.8 C 8.5 g/m*3 10.8 C 1.6 km/h
111 17-11-2020 09:10:00 10.8 C 8.5 g/m*3 9.93 C 8.1 km/h
112 17-11-2020 09:15:00 10.9 C 8.55 g/m*3 9.76 C 9.7 km/h
113 17-11-2020 09:20:00 10.9 C 8.55 g/m*3 9.08 C 14.5 km/h
114 17-11-2020 09:25:00 11 C 8.61 g/m*3 9.4 C 12.9 km/h
115 17-11-2020 09:30:00 11.1 C 8.66 g/m*3 11.1 C 6.4 km/h
116 17-11-2020 09:35:00 11.1 C 8.66 g/m*3 11.1 C 12.9 km/h
117 17-11-2020 09:40:00 11.1 C 8.66 g/m*3 11.1 C 9.7 km/h
118 17-11-2020 09:45:00 11.1 C 8.56 g/m*3 11.1 C 12.9 km/h
119 17-11-2020 09:50:00 11.2 C 8.72 g/m*3 11.2 C 11.3 km/h
120 17-11-2020 09:55:00 11.2 C 8.62 g/m*3 11.2 C 12.9 km/h
121 17-11-2020 10:00:00 11.2 C 8.62 g/m*3 11.2 C 17.7 km/h
122 17-11-2020 10:05:00 11.2 C 8.62 g/m*3 11.2 C 16.1 km/h
123 17-11-2020 10:10:00 11.2 C 8.62 g/m*3 11.2 C 16.1 km/h
124 17-11-2020 10:15:00 11.2 C 8.72 g/m*3 11.2 C 20.9 km/h
125 17-11-2020 10:20:00 11.3 C 8.67 g/m*3 11.3 C 14.5 km/h
Sensor: Nr:Datum:Temp:Abs-Feuchte:Windchill:Wind:
Aussen-T/F 126 17-11-2020 10:25:00 11.4 C 8.72 g/m*3 11.4 C 16.1 km/h
127 17-11-2020 10:30:00 11.4 C 8.72 g/m*3 11.4 C 19.3 km/h
128 17-11-2020 10:35:00 11.4 C 8.72 g/m*3 11.4 C 16.1 km/h
129 17-11-2020 10:40:00 11.5 C 8.78 g/m*3 11.5 C 12.9 km/h
130 17-11-2020 10:45:00 11.6 C 8.73 g/m*3 11.6 C 19.3 km/h
131 17-11-2020 10:50:00 11.7 C 8.79 g/m*3 11.7 C 20.9 km/h
132 17-11-2020 10:55:00 11.8 C 8.84 g/m*3 11.8 C 12.9 km/h
133 17-11-2020 11:00:00 11.8 C 8.84 g/m*3 11.8 C 16.1 km/h
134 17-11-2020 11:05:00 11.8 C 8.84 g/m*3 11.8 C 14.5 km/h
135 17-11-2020 11:10:00 11.9 C 8.9 g/m*3 11.9 C 14.5 km/h
136 17-11-2020 11:15:00 11.9 C 8.79 g/m*3 11.9 C 24.1 km/h
137 17-11-2020 11:20:00 11.9 C 8.79 g/m*3 11.9 C 24.1 km/h
138 17-11-2020 11:25:00 11.9 C 8.79 g/m*3 11.9 C 17.7 km/h
139 17-11-2020 11:30:00 11.9 C 8.79 g/m*3 11.9 C 20.9 km/h
140 17-11-2020 11:35:00 12 C 8.85 g/m*3 12 C 19.3 km/h
141 17-11-2020 11:40:00 12.1 C 8.9 g/m*3 12.1 C 20.9 km/h
142 17-11-2020 11:45:00 12.2 C 8.96 g/m*3 12.2 C 16.1 km/h
143 17-11-2020 11:50:00 12.2 C 8.96 g/m*3 12.2 C 20.9 km/h
144 17-11-2020 11:55:00 12.3 C 9.01 g/m*3 12.3 C 16.1 km/h
145 17-11-2020 12:00:00 12.3 C 9.01 g/m*3 12.3 C 16.1 km/h
146 17-11-2020 12:05:00 12.4 C 8.96 g/m*3 12.4 C 20.9 km/h
147 17-11-2020 12:10:00 12.5 C 9.02 g/m*3 12.5 C 9.7 km/h
148 17-11-2020 12:15:00 12.6 C 9.07 g/m*3 12.6 C 11.3 km/h
149 17-11-2020 12:20:00 12.6 C 9.07 g/m*3 12.6 C 14.5 km/h
150 17-11-2020 12:25:00 12.7 C 9.13 g/m*3 12.7 C 11.3 km/h
Sensor: Nr:Datum:Temp:Abs-Feuchte:Windchill:Wind:
Aussen-T/F 151 17-11-2020 12:30:00 12.7 C 9.13 g/m*3 12.7 C 16.1 km/h
152 17-11-2020 12:35:00 12.8 C 9.07 g/m*3 12.8 C 12.9 km/h
153 17-11-2020 12:40:00 12.8 C 9.07 g/m*3 12.8 C 9.7 km/h
154 17-11-2020 12:45:00 12.8 C 8.96 g/m*3 12.8 C 16.1 km/h
155 17-11-2020 12:50:00 12.8 C 9.07 g/m*3 12.8 C 14.5 km/h
156 17-11-2020 12:55:00 12.7 C 9.02 g/m*3 12.7 C 11.3 km/h
157 17-11-2020 13:00:00 12.7 C 9.02 g/m*3 12.7 C 19.3 km/h
158 17-11-2020 13:05:00 12.7 C 9.02 g/m*3 12.7 C 12.9 km/h
159 17-11-2020 13:10:00 12.7 C 9.02 g/m*3 12.7 C 9.7 km/h
160 17-11-2020 13:15:00 12.8 C 9.07 g/m*3 12.8 C 11.3 km/h
161 17-11-2020 13:20:00 12.8 C 9.07 g/m*3 12.8 C 11.3 km/h
162 17-11-2020 13:25:00 12.8 C 9.07 g/m*3 12.8 C 12.9 km/h
163 17-11-2020 13:30:00 12.9 C 9.13 g/m*3 12.9 C 14.5 km/h
164 17-11-2020 13:35:00 12.9 C 9.13 g/m*3 12.9 C 16.1 km/h
165 17-11-2020 13:40:00 12.9 C 9.13 g/m*3 12.9 C 11.3 km/h
166 17-11-2020 13:45:00 12.9 C 9.13 g/m*3 12.9 C 6.4 km/h
167 17-11-2020 13:50:00 12.9 C 9.13 g/m*3 12.9 C 16.1 km/h
168 17-11-2020 13:55:00 12.9 C 9.13 g/m*3 12.9 C 12.9 km/h
169 17-11-2020 14:00:00 13 C 9.07 g/m*3 13 C 12.9 km/h
170 17-11-2020 14:05:00 13.1 C 9.13 g/m*3 13.1 C 11.3 km/h
171 17-11-2020 14:10:00 13.1 C 9.13 g/m*3 13.1 C 14.5 km/h
172 17-11-2020 14:15:00 13.2 C 9.19 g/m*3 13.2 C 9.7 km/h
173 17-11-2020 14:20:00 13.1 C 9.13 g/m*3 13.1 C 9.7 km/h
174 17-11-2020 14:25:00 13.1 C 9.13 g/m*3 13.1 C 9.7 km/h
175 17-11-2020 14:30:00 13.1 C 9.13 g/m*3 13.1 C 8.1 km/h
Sensor: Nr:Datum:Temp:Abs-Feuchte:Windchill:Wind:
Aussen-T/F 176 17-11-2020 14:35:00 13.1 C 9.13 g/m*3 13.1 C 8.1 km/h
177 17-11-2020 14:40:00 13 C 9.07 g/m*3 13 C 6.4 km/h
178 17-11-2020 14:45:00 12.9 C 9.02 g/m*3 12.9 C 8.1 km/h
179 17-11-2020 14:50:00 12.9 C 9.02 g/m*3 12.9 C 11.3 km/h
180 17-11-2020 14:55:00 12.9 C 9.13 g/m*3 12.9 C 8.1 km/h
181 17-11-2020 15:00:00 12.8 C 9.07 g/m*3 12.8 C 9.7 km/h
182 17-11-2020 15:05:00 12.8 C 9.07 g/m*3 12.8 C 8.1 km/h
183 17-11-2020 15:10:00 12.8 C 9.07 g/m*3 12.8 C 6.4 km/h
184 17-11-2020 15:15:00 12.8 C 9.07 g/m*3 12.8 C 14.5 km/h
185 17-11-2020 15:20:00 12.8 C 9.07 g/m*3 12.8 C 9.7 km/h
186 17-11-2020 15:25:00 12.8 C 9.07 g/m*3 12.8 C 12.9 km/h
187 17-11-2020 15:30:00 12.8 C 9.07 g/m*3 12.8 C 6.4 km/h
188 17-11-2020 15:35:00 12.8 C 9.07 g/m*3 12.8 C 9.7 km/h
189 17-11-2020 15:40:00 12.8 C 9.07 g/m*3 12.8 C 6.4 km/h
190 17-11-2020 15:45:00 12.8 C 9.07 g/m*3 12.8 C 6.4 km/h
191 17-11-2020 15:50:00 12.8 C 9.07 g/m*3 12.8 C 4.8 km/h
192 17-11-2020 15:55:00 12.8 C 9.07 g/m*3 12.8 C 8.1 km/h
193 17-11-2020 16:00:00 12.8 C 9.07 g/m*3 12.8 C 8.1 km/h
194 17-11-2020 16:05:00 12.7 C 9.02 g/m*3 12.7 C 8.1 km/h
195 17-11-2020 16:10:00 12.7 C 9.02 g/m*3 12.7 C 9.7 km/h
196 17-11-2020 16:15:00 12.7 C 9.02 g/m*3 12.7 C 9.7 km/h
197 17-11-2020 16:20:00 12.7 C 9.02 g/m*3 12.7 C 4.8 km/h
198 17-11-2020 16:25:00 12.7 C 9.02 g/m*3 12.7 C 12.9 km/h
199 17-11-2020 16:30:00 12.7 C 9.13 g/m*3 12.7 C 8.1 km/h
200 17-11-2020 16:35:00 12.6 C 9.07 g/m*3 12.6 C 9.7 km/h
Sensor: Nr:Datum:Temp:Abs-Feuchte:Windchill:Wind:
Aussen-T/F 201 17-11-2020 16:40:00 12.6 C 8.96 g/m*3 12.6 C 12.9 km/h
202 17-11-2020 16:45:00 12.6 C 9.07 g/m*3 12.6 C 8.1 km/h
203 17-11-2020 16:50:00 12.6 C 9.07 g/m*3 12.6 C 6.4 km/h
204 17-11-2020 16:55:00 12.5 C 9.02 g/m*3 12.5 C 11.3 km/h
205 17-11-2020 17:00:00 12.5 C 9.02 g/m*3 12.5 C 6.4 km/h
206 17-11-2020 17:05:00 12.4 C 8.96 g/m*3 12.4 C 4.8 km/h
207 17-11-2020 17:10:00 12.4 C 8.96 g/m*3 12.4 C 4.8 km/h
208 17-11-2020 17:15:00 12.4 C 8.96 g/m*3 12.4 C 4.8 km/h
209 17-11-2020 17:20:00 12.4 C 8.96 g/m*3 12.4 C 11.3 km/h
210 17-11-2020 17:25:00 12.4 C 9.07 g/m*3 12.4 C 6.4 km/h
211 17-11-2020 17:30:00 12.4 C 9.07 g/m*3 12.4 C 8.1 km/h
212 17-11-2020 17:35:00 12.3 C 9.01 g/m*3 12.3 C 1.6 km/h
213 17-11-2020 17:40:00 12.3 C 9.01 g/m*3 12.3 C 6.4 km/h
214 17-11-2020 17:45:00 12.3 C 9.01 g/m*3 12.3 C 1.6 km/h
215 17-11-2020 17:50:00 12.3 C 9.01 g/m*3 12.3 C 3.2 km/h
216 17-11-2020 17:55:00 12.3 C 9.01 g/m*3 12.3 C 6.4 km/h
217 17-11-2020 18:00:00 12.3 C 9.01 g/m*3 12.3 C 6.4 km/h
218 17-11-2020 18:05:00 12.3 C 9.01 g/m*3 12.3 C 11.3 km/h
219 17-11-2020 18:10:00 12.3 C 9.01 g/m*3 12.3 C 1.6 km/h
220 17-11-2020 18:15:00 12.3 C 9.01 g/m*3 12.3 C 0 km/h
221 17-11-2020 18:20:00 12.3 C 9.01 g/m*3 12.3 C 4.8 km/h
222 17-11-2020 18:25:00 12.3 C 9.01 g/m*3 12.3 C 4.8 km/h
223 17-11-2020 18:30:00 12.3 C 9.01 g/m*3 12.3 C 1.6 km/h
224 17-11-2020 18:35:00 12.2 C 8.96 g/m*3 12.2 C 1.6 km/h
225 17-11-2020 18:40:00 12.2 C 8.96 g/m*3 12.2 C 3.2 km/h
Sensor: Nr:Datum:Temp:Abs-Feuchte:Windchill:Wind:
Aussen-T/F 226 17-11-2020 18:45:00 12.2 C 9.06 g/m*3 12.2 C 0 km/h
227 17-11-2020 18:50:00 12.2 C 9.06 g/m*3 12.2 C 1.6 km/h
228 17-11-2020 18:55:00 12.1 C 9.01 g/m*3 12.1 C 4.8 km/h
229 17-11-2020 19:00:00 12.1 C 9.01 g/m*3 12.1 C 0 km/h
230 17-11-2020 19:05:00 12.1 C 9.01 g/m*3 12.1 C 1.6 km/h
231 17-11-2020 19:10:00 12.1 C 9.01 g/m*3 12.1 C 0 km/h
232 17-11-2020 19:15:00 12 C 8.95 g/m*3 12 C 1.6 km/h
233 17-11-2020 19:20:00 12 C 8.95 g/m*3 12 C 0 km/h
234 17-11-2020 19:25:00 11.9 C 9 g/m*3 11.9 C 0 km/h
235 17-11-2020 19:30:00 11.9 C 9 g/m*3 11.9 C 0 km/h
236 17-11-2020 19:35:00 11.9 C 9 g/m*3 11.9 C 1.6 km/h
237 17-11-2020 19:40:00 11.9 C 9 g/m*3 11.9 C 1.6 km/h
238 17-11-2020 19:45:00 11.9 C 9 g/m*3 11.9 C 0 km/h
239 17-11-2020 19:50:00 11.8 C 8.95 g/m*3 11.8 C 3.2 km/h
240 17-11-2020 19:55:00 11.8 C 9.05 g/m*3 11.8 C 3.2 km/h
241 17-11-2020 20:00:00 11.9 C 9.11 g/m*3 11.9 C 6.4 km/h
242 17-11-2020 20:05:00 11.9 C 9.11 g/m*3 11.9 C 6.4 km/h
243 17-11-2020 20:10:00 11.9 C 9.11 g/m*3 11.9 C 1.6 km/h
244 17-11-2020 20:15:00 11.8 C 9.05 g/m*3 11.8 C 8.1 km/h
245 17-11-2020 20:20:00 11.8 C 9.05 g/m*3 11.8 C 1.6 km/h
246 17-11-2020 20:25:00 11.8 C 9.05 g/m*3 11.8 C 3.2 km/h
247 17-11-2020 20:30:00 11.8 C 9.05 g/m*3 11.8 C 4.8 km/h
248 17-11-2020 20:35:00 11.8 C 9.05 g/m*3 11.8 C 6.4 km/h
249 17-11-2020 20:40:00 11.8 C 9.05 g/m*3 11.8 C 4.8 km/h
250 17-11-2020 20:45:00 11.9 C 9.11 g/m*3 11.9 C 3.2 km/h
Sensor: Nr:Datum:Temp:Abs-Feuchte:Windchill:Wind:
Aussen-T/F 251 17-11-2020 20:50:00 11.9 C 9.11 g/m*3 11.9 C 6.4 km/h
252 17-11-2020 20:55:00 11.9 C 9.11 g/m*3 11.9 C 9.7 km/h
253 17-11-2020 21:00:00 11.9 C 9.11 g/m*3 11.9 C 1.6 km/h
254 17-11-2020 21:05:00 11.8 C 9.05 g/m*3 11.8 C 3.2 km/h
255 17-11-2020 21:10:00 11.8 C 9.05 g/m*3 11.8 C 0 km/h
256 17-11-2020 21:15:00 11.8 C 9.05 g/m*3 11.8 C 11.3 km/h
257 17-11-2020 21:20:00 11.9 C 9.11 g/m*3 11.9 C 4.8 km/h
258 17-11-2020 21:25:00 11.9 C 9.11 g/m*3 11.9 C 1.6 km/h
259 17-11-2020 21:30:00 11.8 C 9.05 g/m*3 11.8 C 1.6 km/h
260 17-11-2020 21:35:00 11.8 C 9.05 g/m*3 11.8 C 4.8 km/h
261 17-11-2020 21:40:00 11.8 C 9.05 g/m*3 11.8 C 8.1 km/h
262 17-11-2020 21:45:00 11.8 C 9.05 g/m*3 11.8 C 4.8 km/h
263 17-11-2020 21:50:00 11.8 C 9.05 g/m*3 11.8 C 3.2 km/h
264 17-11-2020 21:55:00 11.8 C 9.05 g/m*3 11.8 C 1.6 km/h
265 17-11-2020 22:00:00 11.8 C 9.05 g/m*3 11.8 C 0 km/h
266 17-11-2020 22:05:00 11.7 C 8.99 g/m*3 11.7 C 0 km/h
267 17-11-2020 22:10:00 11.7 C 8.99 g/m*3 11.7 C 1.6 km/h
268 17-11-2020 22:15:00 11.7 C 8.99 g/m*3 11.7 C 1.6 km/h
269 17-11-2020 22:20:00 11.7 C 8.99 g/m*3 11.7 C 0 km/h
270 17-11-2020 22:25:00 11.7 C 9.1 g/m*3 11.7 C 0 km/h
271 17-11-2020 22:30:00 11.7 C 9.1 g/m*3 11.7 C 0 km/h
272 17-11-2020 22:35:00 11.6 C 9.04 g/m*3 11.6 C 0 km/h
273 17-11-2020 22:40:00 11.6 C 9.04 g/m*3 11.6 C 3.2 km/h
274 17-11-2020 22:45:00 11.6 C 9.04 g/m*3 11.6 C 4.8 km/h
275 17-11-2020 22:50:00 11.6 C 9.04 g/m*3 11.6 C 8.1 km/h
Sensor: Nr:Datum:Temp:Abs-Feuchte:Windchill:Wind:
Aussen-T/F 276 17-11-2020 22:55:00 11.6 C 9.04 g/m*3 11.6 C 3.2 km/h
277 17-11-2020 23:00:00 11.6 C 8.94 g/m*3 11.6 C 3.2 km/h
278 17-11-2020 23:05:00 11.6 C 8.94 g/m*3 11.6 C 3.2 km/h
279 17-11-2020 23:10:00 11.6 C 8.94 g/m*3 11.6 C 4.8 km/h
280 17-11-2020 23:15:00 11.5 C 8.88 g/m*3 11.5 C 3.2 km/h
281 17-11-2020 23:20:00 11.5 C 8.88 g/m*3 11.5 C 1.6 km/h
282 17-11-2020 23:25:00 11.5 C 8.88 g/m*3 11.5 C 1.6 km/h
283 17-11-2020 23:30:00 11.6 C 8.94 g/m*3 11.6 C 3.2 km/h
284 17-11-2020 23:35:00 11.6 C 8.83 g/m*3 11.6 C 4.8 km/h
285 17-11-2020 23:40:00 11.6 C 8.83 g/m*3 11.6 C 6.4 km/h
286 17-11-2020 23:45:00 11.6 C 8.83 g/m*3 11.6 C 6.4 km/h
287 17-11-2020 23:50:00 11.6 C 8.83 g/m*3 11.6 C 4.8 km/h
288 17-11-2020 23:55:00 11.7 C 8.89 g/m*3 11.7 C 3.2 km/h
289 18-11-2020 00:00:00 11.7 C 8.89 g/m*3 11.7 C 1.6 km/h
290 18-11-2020 00:05:00 11.7 C 8.89 g/m*3 11.7 C 1.6 km/h
291 18-11-2020 00:10:00 11.6 C 8.83 g/m*3 11.6 C 1.6 km/h
292 18-11-2020 00:15:00 11.6 C 8.83 g/m*3 11.6 C 0 km/h
293 18-11-2020 00:20:00 11.6 C 8.83 g/m*3 11.6 C 0 km/h
294 18-11-2020 00:25:00 11.6 C 8.83 g/m*3 11.6 C 1.6 km/h
295 18-11-2020 00:30:00 11.5 C 8.78 g/m*3 11.5 C 0 km/h
296 18-11-2020 00:35:00 11.5 C 8.78 g/m*3 11.5 C 4.8 km/h
297 18-11-2020 00:40:00 11.4 C 8.72 g/m*3 11.4 C 4.8 km/h
298 18-11-2020 00:45:00 11.4 C 8.72 g/m*3 11.4 C 3.2 km/h
299 18-11-2020 00:50:00 11.4 C 8.72 g/m*3 11.4 C 3.2 km/h
300 18-11-2020 00:55:00 11.4 C 8.72 g/m*3 11.4 C 1.6 km/h
Sensor: Nr:Datum:Temp:Abs-Feuchte:Windchill:Wind:
Aussen-T/F 301 18-11-2020 01:00:00 11.4 C 8.72 g/m*3 11.4 C 0 km/h
302 18-11-2020 01:05:00 11.4 C 8.72 g/m*3 11.4 C 0 km/h
303 18-11-2020 01:10:00 11.4 C 8.83 g/m*3 11.4 C 0 km/h
304 18-11-2020 01:15:00 11.4 C 8.83 g/m*3 11.4 C 0 km/h
305 18-11-2020 01:20:00 11.4 C 8.83 g/m*3 11.4 C 0 km/h
306 18-11-2020 01:25:00 11.4 C 8.83 g/m*3 11.4 C 0 km/h
307 18-11-2020 01:30:00 11.3 C 8.77 g/m*3 11.3 C 0 km/h
308 18-11-2020 01:35:00 11.3 C 8.77 g/m*3 11.3 C 0 km/h
309 18-11-2020 01:40:00 11.3 C 8.77 g/m*3 11.3 C 0 km/h
310 18-11-2020 01:45:00 11.3 C 8.77 g/m*3 11.3 C 0 km/h
311 18-11-2020 01:50:00 11.3 C 8.77 g/m*3 11.3 C 0 km/h
312 18-11-2020 01:55:00 11.3 C 8.77 g/m*3 11.3 C 0 km/h
313 18-11-2020 02:00:00 11.3 C 8.77 g/m*3 11.3 C 0 km/h
314 18-11-2020 02:05:00 11.3 C 8.77 g/m*3 11.3 C 6.4 km/h
315 18-11-2020 02:10:00 11.3 C 8.77 g/m*3 11.3 C 6.4 km/h
316 18-11-2020 02:15:00 11.3 C 8.77 g/m*3 11.3 C 4.8 km/h
317 18-11-2020 02:20:00 11.3 C 8.77 g/m*3 11.3 C 0 km/h
318 18-11-2020 02:25:00 11.3 C 8.77 g/m*3 11.3 C 0 km/h
319 18-11-2020 02:30:00 11.3 C 8.77 g/m*3 11.3 C 1.6 km/h
320 18-11-2020 02:35:00 11.3 C 8.77 g/m*3 11.3 C 3.2 km/h
321 18-11-2020 02:40:00 11.3 C 8.77 g/m*3 11.3 C 3.2 km/h
322 18-11-2020 02:45:00 11.3 C 8.77 g/m*3 11.3 C 3.2 km/h
323 18-11-2020 02:50:00 11.3 C 8.77 g/m*3 11.3 C 3.2 km/h
324 18-11-2020 02:55:00 11.3 C 8.77 g/m*3 11.3 C 0 km/h
325 18-11-2020 03:00:00 11.2 C 8.72 g/m*3 11.2 C 6.4 km/h
Sensor: Nr:Datum:Temp:Abs-Feuchte:Windchill:Wind:
Aussen-T/F 326 18-11-2020 03:05:00 11.2 C 8.72 g/m*3 11.2 C 1.6 km/h
327 18-11-2020 03:10:00 11.2 C 8.72 g/m*3 11.2 C 4.8 km/h
328 18-11-2020 03:15:00 11.2 C 8.72 g/m*3 11.2 C 0 km/h
329 18-11-2020 03:20:00 11.2 C 8.72 g/m*3 11.2 C 0 km/h
330 18-11-2020 03:25:00 11.2 C 8.72 g/m*3 11.2 C 0 km/h
331 18-11-2020 03:30:00 11.2 C 8.72 g/m*3 11.2 C 0 km/h
332 18-11-2020 03:35:00 11.2 C 8.82 g/m*3 11.2 C 0 km/h
333 18-11-2020 03:40:00 11.2 C 8.82 g/m*3 11.2 C 0 km/h
334 18-11-2020 03:45:00 11.1 C 8.76 g/m*3 11.1 C 0 km/h
335 18-11-2020 03:50:00 11.1 C 8.76 g/m*3 11.1 C 0 km/h
336 18-11-2020 03:55:00 11.1 C 8.76 g/m*3 11.1 C 4.8 km/h
337 18-11-2020 04:00:00 11 C 8.71 g/m*3 11 C 1.6 km/h
338 18-11-2020 04:05:00 11 C 8.71 g/m*3 11 C 1.6 km/h
339 18-11-2020 04:10:00 11 C 8.71 g/m*3 11 C 0 km/h
340 18-11-2020 04:15:00 11 C 8.71 g/m*3 11 C 0 km/h
341 18-11-2020 04:20:00 11 C 8.71 g/m*3 11 C 1.6 km/h
342 18-11-2020 04:25:00 11 C 8.71 g/m*3 11 C 0 km/h
343 18-11-2020 04:30:00 10.9 C 8.65 g/m*3 10.9 C 0 km/h
344 18-11-2020 04:35:00 10.9 C 8.65 g/m*3 10.9 C 0 km/h
345 18-11-2020 04:40:00 10.9 C 8.65 g/m*3 10.9 C 0 km/h
346 18-11-2020 04:45:00 10.9 C 8.65 g/m*3 10.9 C 0 km/h
347 18-11-2020 04:50:00 10.9 C 8.65 g/m*3 10.9 C 0 km/h
348 18-11-2020 04:55:00 10.9 C 8.65 g/m*3 10.9 C 0 km/h
349 18-11-2020 05:00:00 10.9 C 8.75 g/m*3 10.9 C 0 km/h
350 18-11-2020 05:05:00 10.8 C 8.6 g/m*3 10.8 C 3.2 km/h
Sensor: Nr:Datum:Temp:Abs-Feuchte:Windchill:Wind:
Aussen-T/F 351 18-11-2020 05:10:00 10.8 C 8.6 g/m*3 10.8 C 0 km/h
352 18-11-2020 05:15:00 10.8 C 8.6 g/m*3 10.8 C 0 km/h
353 18-11-2020 05:20:00 10.8 C 8.7 g/m*3 10.8 C 0 km/h
354 18-11-2020 05:25:00 10.8 C 8.7 g/m*3 10.8 C 0 km/h
355 18-11-2020 05:30:00 10.8 C 8.6 g/m*3 10.8 C 0 km/h
356 18-11-2020 05:35:00 10.8 C 8.6 g/m*3 10.8 C 0 km/h
357 18-11-2020 05:40:00 10.8 C 8.6 g/m*3 10.8 C 0 km/h
358 18-11-2020 05:45:00 10.8 C 8.7 g/m*3 10.8 C 0 km/h
359 18-11-2020 05:50:00 10.8 C 8.6 g/m*3 10.8 C 0 km/h
360 18-11-2020 05:55:00 10.7 C 8.55 g/m*3 10.7 C 0 km/h
361 18-11-2020 06:00:00 10.7 C 8.55 g/m*3 10.7 C 0 km/h
362 18-11-2020 06:05:00 10.7 C 8.64 g/m*3 10.7 C 0 km/h
363 18-11-2020 06:10:00 10.7 C 8.64 g/m*3 10.7 C 0 km/h
364 18-11-2020 06:15:00 10.7 C 8.64 g/m*3 10.7 C 0 km/h
365 18-11-2020 06:20:00 10.7 C 8.64 g/m*3 10.7 C 0 km/h
366 18-11-2020 06:25:00 10.7 C 8.64 g/m*3 10.7 C 0 km/h
367 18-11-2020 06:30:00 10.7 C 8.64 g/m*3 10.7 C 0 km/h
368 18-11-2020 06:35:00 10.7 C 8.64 g/m*3 10.7 C 1.6 km/h
369 18-11-2020 06:40:00 10.7 C 8.64 g/m*3 10.7 C 0 km/h
370 18-11-2020 06:45:00 10.7 C 8.64 g/m*3 10.7 C 0 km/h
371 18-11-2020 06:50:00 10.7 C 8.64 g/m*3 10.7 C 0 km/h
372 18-11-2020 06:55:00 10.7 C 8.64 g/m*3 10.7 C 0 km/h
373 18-11-2020 07:00:00 10.7 C 8.64 g/m*3 10.7 C 0 km/h
374 18-11-2020 07:05:00 10.7 C 8.64 g/m*3 10.7 C 0 km/h
375 18-11-2020 07:10:00 10.7 C 8.64 g/m*3 10.7 C 0 km/h
Sensor: Nr:Datum:Temp:Abs-Feuchte:Windchill:Wind:
Aussen-T/F 376 18-11-2020 07:15:00 10.7 C 8.64 g/m*3 10.7 C 0 km/h
377 18-11-2020 07:20:00 10.7 C 8.64 g/m*3 10.7 C 0 km/h
378 18-11-2020 07:25:00 10.7 C 8.64 g/m*3 10.7 C 0 km/h
379 18-11-2020 07:30:00 10.7 C 8.64 g/m*3 10.7 C 0 km/h
380 18-11-2020 07:35:00 10.7 C 8.64 g/m*3 10.7 C 0 km/h
381 18-11-2020 07:40:00 10.7 C 8.64 g/m*3 10.7 C 0 km/h
382 18-11-2020 07:45:00 10.7 C 8.74 g/m*3 10.7 C 0 km/h
383 18-11-2020 07:50:00 10.7 C 8.74 g/m*3 10.7 C 0 km/h
384 18-11-2020 07:55:00 10.7 C 8.74 g/m*3 10.7 C 0 km/h
385 18-11-2020 08:00:00 10.7 C 8.74 g/m*3 10.7 C 3.2 km/h
386 18-11-2020 08:05:00 10.7 C 8.64 g/m*3 10.7 C 4.8 km/h
387 18-11-2020 08:10:00 10.7 C 8.64 g/m*3 10.7 C 1.6 km/h
388 18-11-2020 08:15:00 10.8 C 8.7 g/m*3 10.8 C 1.6 km/h
389 18-11-2020 08:20:00 10.8 C 8.7 g/m*3 10.8 C 0 km/h
390 18-11-2020 08:25:00 10.8 C 8.6 g/m*3 10.8 C 0 km/h
391 18-11-2020 08:30:00 10.8 C 8.6 g/m*3 10.8 C 0 km/h
392 18-11-2020 08:35:00 10.8 C 8.6 g/m*3 10.8 C 3.2 km/h
393 18-11-2020 08:40:00 10.8 C 8.6 g/m*3 10.8 C 4.8 km/h
394 18-11-2020 08:45:00 10.8 C 8.6 g/m*3 10.8 C 3.2 km/h
395 18-11-2020 08:50:00 10.8 C 8.5 g/m*3 10.29 C 6.4 km/h
396 18-11-2020 08:55:00 10.8 C 8.6 g/m*3 10.8 C 3.2 km/h
397 18-11-2020 09:00:00 10.8 C 8.6 g/m*3 10.29 C 6.4 km/h
398 18-11-2020 09:05:00 10.8 C 8.5 g/m*3 10.8 C 4.8 km/h
399 18-11-2020 09:10:00 10.8 C 8.6 g/m*3 10.8 C 0 km/h
400 18-11-2020 09:15:00 10.8 C 8.6 g/m*3 10.8 C 0 km/h
Sensor: Nr:Datum:Temp:Abs-Feuchte:Windchill:Wind:
Aussen-T/F 401 18-11-2020 09:20:00 10.8 C 8.6 g/m*3 10.8 C 0 km/h
402 18-11-2020 09:25:00 10.8 C 8.5 g/m*3 10.8 C 1.6 km/h
403 18-11-2020 09:30:00 10.8 C 8.6 g/m*3 10.8 C 0 km/h
404 18-11-2020 09:35:00 10.7 C 8.45 g/m*3 10.7 C 1.6 km/h
405 18-11-2020 09:40:00 10.5 C 8.34 g/m*3 10.5 C 0 km/h
406 18-11-2020 09:45:00 10.3 C 8.33 g/m*3 10.3 C 0 km/h
407 18-11-2020 09:50:00 10.1 C 8.23 g/m*3 10.1 C 0 km/h
408 18-11-2020 09:55:00 10 C 8.17 g/m*3 10 C 0 km/h
409 18-11-2020 10:00:00 9.8 C 8.16 g/m*3 9.8 C 0 km/h
410 18-11-2020 10:05:00 9.7 C 8.11 g/m*3 9.7 C 0 km/h
411 18-11-2020 10:10:00 9.6 C 8.06 g/m*3 9.6 C 0 km/h
412 18-11-2020 10:15:00 9.5 C 8.1 g/m*3 9.5 C 3.2 km/h
413 18-11-2020 10:20:00 9.4 C 8.05 g/m*3 9.4 C 1.6 km/h
414 18-11-2020 10:25:00 9.4 C 8.14 g/m*3 9.4 C 4.8 km/h
415 18-11-2020 10:30:00 9.3 C 8.09 g/m*3 9.3 C 3.2 km/h
416 18-11-2020 10:35:00 9.3 C 8.09 g/m*3 9.3 C 1.6 km/h
417 18-11-2020 10:40:00 9.3 C 8.18 g/m*3 9.3 C 3.2 km/h
418 18-11-2020 10:45:00 9.3 C 8.18 g/m*3 9.3 C 1.6 km/h
419 18-11-2020 10:50:00 9.3 C 8.18 g/m*3 9.3 C 3.2 km/h
420 18-11-2020 10:55:00 9.3 C 8.27 g/m*3 9.3 C 3.2 km/h
421 18-11-2020 11:00:00 9.3 C 8.27 g/m*3 9.3 C 4.8 km/h
422 18-11-2020 11:05:00 9.4 C 8.32 g/m*3 9.4 C 3.2 km/h
423 18-11-2020 11:10:00 9.4 C 8.32 g/m*3 9.4 C 1.6 km/h
424 18-11-2020 11:15:00 9.5 C 8.37 g/m*3 9.5 C 4.8 km/h
425 18-11-2020 11:20:00 9.6 C 8.43 g/m*3 9.6 C 3.2 km/h
Sensor: Nr:Datum:Temp:Abs-Feuchte:Windchill:Wind:
Aussen-T/F 426 18-11-2020 11:25:00 9.6 C 8.52 g/m*3 9.6 C 3.2 km/h
427 18-11-2020 11:30:00 9.6 C 8.52 g/m*3 9.6 C 4.8 km/h
428 18-11-2020 11:35:00 9.7 C 8.57 g/m*3 9.7 C 3.2 km/h
429 18-11-2020 11:40:00 9.7 C 8.57 g/m*3 9.7 C 4.8 km/h
430 18-11-2020 11:45:00 9.7 C 8.57 g/m*3 9.7 C 4.8 km/h
431 18-11-2020 11:50:00 9.8 C 8.63 g/m*3 9.8 C 4.8 km/h
432 18-11-2020 11:55:00 9.9 C 8.68 g/m*3 9.9 C 4.8 km/h
433 18-11-2020 12:00:00 9.9 C 8.68 g/m*3 9.9 C 4.8 km/h
434 18-11-2020 12:05:00 10 C 8.74 g/m*3 10 C 1.6 km/h
435 18-11-2020 12:10:00 10.1 C 8.7 g/m*3 10.1 C 4.8 km/h
436 18-11-2020 12:15:00 10.2 C 8.76 g/m*3 10.2 C 4.8 km/h
437 18-11-2020 12:20:00 10.2 C 8.76 g/m*3 9.6 C 6.4 km/h
438 18-11-2020 12:25:00 10.3 C 8.81 g/m*3 10.3 C 4.8 km/h
439 18-11-2020 12:30:00 10.3 C 8.81 g/m*3 9.72 C 6.4 km/h
440 18-11-2020 12:35:00 10.4 C 8.87 g/m*3 10.4 C 0 km/h
441 18-11-2020 12:40:00 10.6 C 8.98 g/m*3 10.6 C 0 km/h
442 18-11-2020 12:45:00 10.7 C 8.94 g/m*3 10.7 C 0 km/h
443 18-11-2020 12:50:00 10.7 C 8.94 g/m*3 10.7 C 0 km/h
444 18-11-2020 12:55:00 10.8 C 8.99 g/m*3 10.8 C 0 km/h
445 18-11-2020 13:00:00 10.8 C 8.99 g/m*3 10.8 C 0 km/h
446 18-11-2020 13:05:00 10.8 C 8.99 g/m*3 10.8 C 0 km/h
447 18-11-2020 13:10:00 10.8 C 8.99 g/m*3 10.8 C 0 km/h
448 18-11-2020 13:15:00 10.9 C 9.05 g/m*3 10.9 C 0 km/h
449 18-11-2020 13:20:00 10.9 C 9.05 g/m*3 10.9 C 0 km/h
450 18-11-2020 13:25:00 10.9 C 9.05 g/m*3 10.9 C 0 km/h
Sensor: Nr:Datum:Temp:Abs-Feuchte:Windchill:Wind:
Aussen-T/F 451 18-11-2020 13:30:00 11 C 9.11 g/m*3 11 C 0 km/h
452 18-11-2020 13:35:00 11 C 9.11 g/m*3 11 C 0 km/h
453 18-11-2020 13:40:00 11.1 C 9.17 g/m*3 11.1 C 0 km/h
454 18-11-2020 13:45:00 11.1 C 9.17 g/m*3 11.1 C 0 km/h
455 18-11-2020 13:50:00 11.2 C 9.22 g/m*3 11.2 C 0 km/h
456 18-11-2020 13:55:00 11.2 C 9.22 g/m*3 11.2 C 0 km/h
457 18-11-2020 14:00:00 11.2 C 9.22 g/m*3 11.2 C 0 km/h
458 18-11-2020 14:05:00 11.3 C 9.28 g/m*3 11.3 C 0 km/h
459 18-11-2020 14:10:00 11.3 C 9.18 g/m*3 11.3 C 0 km/h
460 18-11-2020 14:15:00 11.3 C 9.18 g/m*3 11.3 C 0 km/h
461 18-11-2020 14:20:00 11.4 C 9.34 g/m*3 11.4 C 0 km/h
462 18-11-2020 14:25:00 11.4 C 9.24 g/m*3 11.4 C 0 km/h
463 18-11-2020 14:30:00 11.5 C 9.3 g/m*3 11.5 C 3.2 km/h
464 18-11-2020 14:35:00 11.6 C 9.35 g/m*3 11.6 C 4.8 km/h
465 18-11-2020 14:40:00 11.7 C 9.31 g/m*3 11.7 C 4.8 km/h
466 18-11-2020 14:45:00 11.8 C 9.37 g/m*3 11.8 C 3.2 km/h
467 18-11-2020 14:50:00 11.9 C 9.43 g/m*3 11.9 C 3.2 km/h
468 18-11-2020 14:55:00 12.1 C 9.44 g/m*3 12.1 C 6.4 km/h
469 18-11-2020 15:00:00 12.1 C 9.44 g/m*3 12.1 C 4.8 km/h
470 18-11-2020 15:05:00 12.2 C 9.5 g/m*3 12.2 C 4.8 km/h
471 18-11-2020 15:10:00 12.2 C 9.5 g/m*3 12.2 C 4.8 km/h
472 18-11-2020 15:15:00 12.3 C 9.56 g/m*3 12.3 C 3.2 km/h
473 18-11-2020 15:20:00 12.2 C 9.39 g/m*3 12.2 C 0 km/h
474 18-11-2020 15:25:00 12.2 C 9.5 g/m*3 12.2 C 6.4 km/h
475 18-11-2020 15:30:00 12.2 C 9.39 g/m*3 12.2 C 4.8 km/h
Sensor: Nr:Datum:Temp:Abs-Feuchte:Windchill:Wind:
Aussen-T/F 476 18-11-2020 15:35:00 12.2 C 9.5 g/m*3 12.2 C 3.2 km/h
477 18-11-2020 15:40:00 12.2 C 9.39 g/m*3 12.2 C 4.8 km/h
478 18-11-2020 15:45:00 12.1 C 9.33 g/m*3 12.1 C 4.8 km/h
479 18-11-2020 15:50:00 12 C 9.27 g/m*3 12 C 4.8 km/h
480 18-11-2020 15:55:00 11.9 C 9.32 g/m*3 11.9 C 6.4 km/h
481 18-11-2020 16:00:00 11.8 C 9.26 g/m*3 11.8 C 6.4 km/h
482 18-11-2020 16:05:00 11.8 C 9.26 g/m*3 11.8 C 6.4 km/h
483 18-11-2020 16:10:00 11.7 C 9.2 g/m*3 11.7 C 6.4 km/h
484 18-11-2020 16:15:00 11.6 C 9.15 g/m*3 11.6 C 6.4 km/h
485 18-11-2020 16:20:00 11.4 C 9.03 g/m*3 11.4 C 6.4 km/h
486 18-11-2020 16:25:00 11.3 C 8.98 g/m*3 11.3 C 6.4 km/h
487 18-11-2020 16:30:00 11.2 C 8.92 g/m*3 11.2 C 4.8 km/h
488 18-11-2020 16:35:00 11.1 C 8.86 g/m*3 11.1 C 6.4 km/h
489 18-11-2020 16:40:00 10.9 C 8.75 g/m*3 10.9 C 3.2 km/h
490 18-11-2020 16:45:00 10.8 C 8.7 g/m*3 10.8 C 1.6 km/h
491 18-11-2020 16:50:00 10.7 C 8.74 g/m*3 10.7 C 3.2 km/h
492 18-11-2020 16:55:00 10.5 C 8.53 g/m*3 10.5 C 3.2 km/h
493 18-11-2020 17:00:00 10.3 C 8.52 g/m*3 10.3 C 0 km/h
494 18-11-2020 17:05:00 10.2 C 8.47 g/m*3 10.2 C 4.8 km/h
495 18-11-2020 17:10:00 10 C 8.36 g/m*3 10 C 3.2 km/h
496 18-11-2020 17:15:00 9.8 C 8.26 g/m*3 9.8 C 3.2 km/h
497 18-11-2020 17:20:00 9.7 C 8.3 g/m*3 9.7 C 4.8 km/h
498 18-11-2020 17:25:00 9.6 C 8.24 g/m*3 9.6 C 3.2 km/h
499 18-11-2020 17:30:00 9.5 C 8.19 g/m*3 9.5 C 4.8 km/h
500 18-11-2020 17:35:00 9.4 C 8.14 g/m*3 9.4 C 4.8 km/h
Sensor: Nr:Datum:Temp:Abs-Feuchte:Windchill:Wind:
Aussen-T/F 501 18-11-2020 17:40:00 9.3 C 8.18 g/m*3 9.3 C 3.2 km/h
502 18-11-2020 17:45:00 9.2 C 8.13 g/m*3 8.45 C 6.4 km/h
503 18-11-2020 17:50:00 9.2 C 8.13 g/m*3 9.2 C 3.2 km/h
504 18-11-2020 17:55:00 9.1 C 8.07 g/m*3 9.1 C 4.8 km/h
505 18-11-2020 18:00:00 9 C 8.11 g/m*3 9 C 3.2 km/h
506 18-11-2020 18:05:00 8.9 C 8.06 g/m*3 8.9 C 4.8 km/h
507 18-11-2020 18:10:00 8.8 C 8.01 g/m*3 8.8 C 3.2 km/h
508 18-11-2020 18:15:00 8.8 C 8.01 g/m*3 8.8 C 3.2 km/h
509 18-11-2020 18:20:00 8.7 C 7.96 g/m*3 7.87 C 6.4 km/h
510 18-11-2020 18:25:00 8.7 C 7.96 g/m*3 7.87 C 6.4 km/h
511 18-11-2020 18:30:00 8.7 C 7.96 g/m*3 8.7 C 3.2 km/h
512 18-11-2020 18:35:00 8.6 C 7.91 g/m*3 8.6 C 4.8 km/h
513 18-11-2020 18:40:00 8.5 C 7.85 g/m*3 8.5 C 4.8 km/h
514 18-11-2020 18:45:00 8.4 C 7.8 g/m*3 8.4 C 4.8 km/h
515 18-11-2020 18:50:00 8.3 C 7.75 g/m*3 8.3 C 4.8 km/h
516 18-11-2020 18:55:00 8.3 C 7.84 g/m*3 7.41 C 6.4 km/h
517 18-11-2020 19:00:00 8.3 C 7.84 g/m*3 8.3 C 3.2 km/h
518 18-11-2020 19:05:00 8.2 C 7.7 g/m*3 8.2 C 3.2 km/h
519 18-11-2020 19:10:00 8.1 C 7.74 g/m*3 7.17 C 6.4 km/h
520 18-11-2020 19:15:00 8 C 7.69 g/m*3 8 C 3.2 km/h
521 18-11-2020 19:20:00 8.1 C 7.74 g/m*3 8.1 C 4.8 km/h
522 18-11-2020 19:25:00 8.1 C 7.82 g/m*3 8.1 C 4.8 km/h
523 18-11-2020 19:30:00 8.1 C 7.74 g/m*3 8.1 C 3.2 km/h
524 18-11-2020 19:35:00 7.9 C 7.64 g/m*3 7.9 C 1.6 km/h
525 18-11-2020 19:40:00 7.9 C 7.64 g/m*3 7.9 C 3.2 km/h
Sensor: Nr:Datum:Temp:Abs-Feuchte:Windchill:Wind:
Aussen-T/F 526 18-11-2020 19:45:00 7.9 C 7.64 g/m*3 7.9 C 0 km/h
527 18-11-2020 19:50:00 7.8 C 7.59 g/m*3 7.8 C 0 km/h
528 18-11-2020 19:55:00 7.7 C 7.54 g/m*3 7.7 C 0 km/h
529 18-11-2020 20:00:00 7.6 C 7.49 g/m*3 7.6 C 1.6 km/h
530 18-11-2020 20:05:00 7.6 C 7.57 g/m*3 7.6 C 0 km/h
531 18-11-2020 20:10:00 7.6 C 7.57 g/m*3 7.6 C 3.2 km/h
532 18-11-2020 20:15:00 7.5 C 7.44 g/m*3 7.5 C 0 km/h
533 18-11-2020 20:20:00 7.4 C 7.4 g/m*3 7.4 C 0 km/h
534 18-11-2020 20:25:00 7.3 C 7.35 g/m*3 7.3 C 0 km/h
535 18-11-2020 20:30:00 7.3 C 7.35 g/m*3 7.3 C 0 km/h
536 18-11-2020 20:35:00 7.2 C 7.3 g/m*3 7.2 C 0 km/h
537 18-11-2020 20:40:00 7.1 C 7.25 g/m*3 7.1 C 0 km/h
538 18-11-2020 20:45:00 7.1 C 7.25 g/m*3 7.1 C 0 km/h
539 18-11-2020 20:50:00 7 C 7.28 g/m*3 7 C 0 km/h
540 18-11-2020 20:55:00 6.9 C 7.24 g/m*3 6.9 C 0 km/h
541 18-11-2020 21:00:00 6.9 C 7.24 g/m*3 6.9 C 1.6 km/h
542 18-11-2020 21:05:00 6.8 C 7.19 g/m*3 6.8 C 0 km/h
543 18-11-2020 21:10:00 6.8 C 7.19 g/m*3 6.8 C 0 km/h
544 18-11-2020 21:15:00 6.7 C 7.14 g/m*3 6.7 C 0 km/h
545 18-11-2020 21:20:00 6.7 C 7.14 g/m*3 6.7 C 0 km/h
546 18-11-2020 21:25:00 6.7 C 7.14 g/m*3 6.7 C 0 km/h
547 18-11-2020 21:30:00 6.7 C 7.14 g/m*3 6.7 C 0 km/h
548 18-11-2020 21:35:00 6.6 C 7.1 g/m*3 6.6 C 0 km/h
549 18-11-2020 21:40:00 6.6 C 7.1 g/m*3 6.6 C 0 km/h
550 18-11-2020 21:45:00 6.5 C 7.05 g/m*3 6.5 C 1.6 km/h
Sensor: Nr:Datum:Temp:Abs-Feuchte:Windchill:Wind:
Aussen-T/F 551 18-11-2020 21:50:00 6.5 C 7.05 g/m*3 6.5 C 3.2 km/h
552 18-11-2020 21:55:00 6.5 C 7.12 g/m*3 6.5 C 1.6 km/h
553 18-11-2020 22:00:00 6.6 C 7.17 g/m*3 6.6 C 1.6 km/h
554 18-11-2020 22:05:00 6.5 C 7.12 g/m*3 6.5 C 0 km/h
555 18-11-2020 22:10:00 6.5 C 7.12 g/m*3 6.5 C 0 km/h
556 18-11-2020 22:15:00 6.4 C 7 g/m*3 6.4 C 1.6 km/h
557 18-11-2020 22:20:00 6.4 C 7 g/m*3 6.4 C 1.6 km/h
558 18-11-2020 22:25:00 6.3 C 6.96 g/m*3 6.3 C 0 km/h
559 18-11-2020 22:30:00 6.3 C 6.96 g/m*3 6.3 C 0 km/h
560 18-11-2020 22:35:00 6.3 C 7.03 g/m*3 6.3 C 0 km/h
561 18-11-2020 22:40:00 6.3 C 7.03 g/m*3 6.3 C 0 km/h
562 18-11-2020 22:45:00 6.3 C 7.03 g/m*3 6.3 C 0 km/h
563 18-11-2020 22:50:00 6.2 C 6.99 g/m*3 6.2 C 0 km/h
564 18-11-2020 22:55:00 6.1 C 6.87 g/m*3 6.1 C 0 km/h
565 18-11-2020 23:00:00 6.1 C 6.94 g/m*3 6.1 C 0 km/h
566 18-11-2020 23:05:00 6.1 C 6.94 g/m*3 6.1 C 0 km/h
567 18-11-2020 23:10:00 6 C 6.9 g/m*3 6 C 0 km/h
568 18-11-2020 23:15:00 5.9 C 6.85 g/m*3 5.9 C 0 km/h
569 18-11-2020 23:20:00 6 C 6.9 g/m*3 6 C 0 km/h
570 18-11-2020 23:25:00 6 C 6.9 g/m*3 6 C 0 km/h
571 18-11-2020 23:30:00 6.1 C 6.94 g/m*3 6.1 C 0 km/h
572 18-11-2020 23:35:00 6 C 6.9 g/m*3 6 C 0 km/h
573 18-11-2020 23:40:00 6 C 6.9 g/m*3 6 C 0 km/h
574 18-11-2020 23:45:00 6 C 6.9 g/m*3 6 C 0 km/h
575 18-11-2020 23:50:00 6 C 6.9 g/m*3 6 C 3.2 km/h
Sensor: Nr:Datum:Temp:Abs-Feuchte:Windchill:Wind:
Aussen-T/F 576 18-11-2020 23:55:00 5.9 C 6.85 g/m*3 5.9 C 0 km/h
577 19-11-2020 00:00:00 5.9 C 6.85 g/m*3 5.9 C 0 km/h
578 19-11-2020 00:05:00 5.8 C 6.81 g/m*3 5.8 C 3.2 km/h
579 19-11-2020 00:10:00 5.9 C 6.85 g/m*3 5.9 C 4.8 km/h
580 19-11-2020 00:15:00 6.1 C 6.94 g/m*3 6.1 C 1.6 km/h
581 19-11-2020 00:20:00 6.1 C 7.01 g/m*3 6.1 C 3.2 km/h
582 19-11-2020 00:25:00 6.3 C 7.11 g/m*3 6.3 C 3.2 km/h
583 19-11-2020 00:30:00 6.9 C 7.47 g/m*3 6.9 C 4.8 km/h
584 19-11-2020 00:35:00 7.2 C 7.61 g/m*3 5.69 C 8.1 km/h
585 19-11-2020 00:40:00 7.6 C 7.81 g/m*3 5.82 C 9.7 km/h
586 19-11-2020 00:45:00 8.2 C 8.12 g/m*3 6.25 C 11.3 km/h
587 19-11-2020 00:50:00 8.5 C 8.2 g/m*3 7.22 C 8.1 km/h
588 19-11-2020 00:55:00 8.8 C 8.36 g/m*3 7.25 C 9.7 km/h
589 19-11-2020 01:00:00 9.2 C 8.39 g/m*3 7.73 C 9.7 km/h
590 19-11-2020 01:05:00 9.6 C 8.52 g/m*3 7.94 C 11.3 km/h
591 19-11-2020 01:10:00 10.2 C 8.56 g/m*3 7.54 C 20.9 km/h
592 19-11-2020 01:15:00 10.8 C 8.6 g/m*3 8.96 C 14.5 km/h
593 19-11-2020 01:20:00 11.3 C 8.57 g/m*3 11.3 C 14.5 km/h
594 19-11-2020 01:25:00 11.5 C 8.57 g/m*3 11.5 C 19.3 km/h
595 19-11-2020 01:30:00 11.7 C 8.58 g/m*3 11.7 C 14.5 km/h
596 19-11-2020 01:35:00 11.8 C 8.53 g/m*3 11.8 C 11.3 km/h
597 19-11-2020 01:40:00 11.8 C 8.53 g/m*3 11.8 C 12.9 km/h
598 19-11-2020 01:45:00 11.9 C 8.58 g/m*3 11.9 C 11.3 km/h
599 19-11-2020 01:50:00 11.9 C 8.47 g/m*3 11.9 C 12.9 km/h
600 19-11-2020 01:55:00 12 C 8.53 g/m*3 12 C 12.9 km/h
Sensor: Nr:Datum:Temp:Abs-Feuchte:Windchill:Wind:
Aussen-T/F 601 19-11-2020 02:00:00 12.1 C 8.58 g/m*3 12.1 C 14.5 km/h
602 19-11-2020 02:05:00 12.1 C 8.58 g/m*3 12.1 C 12.9 km/h
603 19-11-2020 02:10:00 12.1 C 8.58 g/m*3 12.1 C 11.3 km/h
604 19-11-2020 02:15:00 12.2 C 8.52 g/m*3 12.2 C 14.5 km/h
605 19-11-2020 02:20:00 12.2 C 8.63 g/m*3 12.2 C 9.7 km/h
606 19-11-2020 02:25:00 12.2 C 8.74 g/m*3 12.2 C 19.3 km/h
607 19-11-2020 02:30:00 12.1 C 8.69 g/m*3 12.1 C 12.9 km/h
608 19-11-2020 02:35:00 12.1 C 8.9 g/m*3 12.1 C 14.5 km/h
609 19-11-2020 02:40:00 11.9 C 8.9 g/m*3 11.9 C 11.3 km/h
610 19-11-2020 02:45:00 11.7 C 8.99 g/m*3 11.7 C 12.9 km/h
611 19-11-2020 02:50:00 11.3 C 8.98 g/m*3 11.3 C 12.9 km/h
612 19-11-2020 02:55:00 11.1 C 8.96 g/m*3 11.1 C 6.4 km/h
613 19-11-2020 03:00:00 10.9 C 8.85 g/m*3 9.28 C 12.9 km/h
614 19-11-2020 03:05:00 10.8 C 8.9 g/m*3 8.78 C 16.1 km/h
615 19-11-2020 03:10:00 10.8 C 8.99 g/m*3 8.96 C 14.5 km/h
616 19-11-2020 03:15:00 10.7 C 8.94 g/m*3 8.84 C 14.5 km/h
617 19-11-2020 03:20:00 10.7 C 8.94 g/m*3 10.18 C 6.4 km/h
618 19-11-2020 03:25:00 10.6 C 8.88 g/m*3 9.4 C 9.7 km/h
619 19-11-2020 03:30:00 10.6 C 8.88 g/m*3 9.69 C 8.1 km/h
620 19-11-2020 03:35:00 10.6 C 8.88 g/m*3 9.69 C 8.1 km/h
621 19-11-2020 03:40:00 10.5 C 8.83 g/m*3 9.02 C 11.3 km/h
622 19-11-2020 03:45:00 10.6 C 8.98 g/m*3 9.69 C 8.1 km/h
623 19-11-2020 03:50:00 10.6 C 8.98 g/m*3 9.69 C 8.1 km/h
624 19-11-2020 03:55:00 10.7 C 8.94 g/m*3 9.26 C 11.3 km/h
625 19-11-2020 04:00:00 10.7 C 8.94 g/m*3 9.52 C 9.7 km/h
Sensor: Nr:Datum:Temp:Abs-Feuchte:Windchill:Wind:
Aussen-T/F 626 19-11-2020 04:05:00 10.7 C 8.94 g/m*3 9.81 C 8.1 km/h
627 19-11-2020 04:10:00 10.7 C 8.94 g/m*3 9.04 C 12.9 km/h
628 19-11-2020 04:15:00 10.7 C 8.94 g/m*3 9.52 C 9.7 km/h
629 19-11-2020 04:20:00 10.7 C 8.94 g/m*3 8.84 C 14.5 km/h
630 19-11-2020 04:25:00 10.7 C 8.94 g/m*3 10.18 C 6.4 km/h
631 19-11-2020 04:30:00 10.7 C 8.94 g/m*3 10.18 C 6.4 km/h
632 19-11-2020 04:35:00 10.7 C 8.94 g/m*3 10.18 C 6.4 km/h
633 19-11-2020 04:40:00 10.7 C 8.94 g/m*3 9.81 C 8.1 km/h
634 19-11-2020 04:45:00 10.7 C 9.04 g/m*3 10.7 C 4.8 km/h
635 19-11-2020 04:50:00 10.7 C 9.04 g/m*3 10.7 C 3.2 km/h
636 19-11-2020 04:55:00 10.7 C 9.04 g/m*3 10.18 C 6.4 km/h
637 19-11-2020 05:00:00 10.8 C 9.09 g/m*3 9.38 C 11.3 km/h
638 19-11-2020 05:05:00 10.8 C 9.09 g/m*3 9.93 C 8.1 km/h
639 19-11-2020 05:10:00 10.8 C 9.09 g/m*3 10.8 C 3.2 km/h
640 19-11-2020 05:15:00 10.8 C 9.09 g/m*3 9.64 C 9.7 km/h
641 19-11-2020 05:20:00 10.8 C 9.09 g/m*3 9.93 C 8.1 km/h
642 19-11-2020 05:25:00 10.8 C 9.09 g/m*3 9.93 C 8.1 km/h
643 19-11-2020 05:30:00 10.9 C 9.15 g/m*3 10.41 C 6.4 km/h
644 19-11-2020 05:35:00 10.8 C 9.19 g/m*3 10.29 C 6.4 km/h
645 19-11-2020 05:40:00 10.8 C 9.19 g/m*3 9.93 C 8.1 km/h
646 19-11-2020 05:45:00 10.6 C 8.98 g/m*3 8.2 C 19.3 km/h
647 19-11-2020 05:50:00 9.9 C 8.5 g/m*3 7.66 C 16.1 km/h
648 19-11-2020 05:55:00 9.6 C 8.43 g/m*3 7.7 C 12.9 km/h
649 19-11-2020 06:00:00 9.3 C 8.27 g/m*3 7.33 C 12.9 km/h
650 19-11-2020 06:05:00 9.2 C 8.3 g/m*3 8.05 C 8.1 km/h
Sensor: Nr:Datum:Temp:Abs-Feuchte:Windchill:Wind:
Aussen-T/F 651 19-11-2020 06:10:00 9.1 C 8.34 g/m*3 7.09 C 12.9 km/h
652 19-11-2020 06:15:00 9.1 C 8.34 g/m*3 7.93 C 8.1 km/h
653 19-11-2020 06:20:00 8.9 C 8.23 g/m*3 7.69 C 8.1 km/h
654 19-11-2020 06:25:00 8.9 C 8.23 g/m*3 8.9 C 4.8 km/h
655 19-11-2020 06:30:00 8.9 C 8.23 g/m*3 8.9 C 0 km/h
656 19-11-2020 06:35:00 8.9 C 8.32 g/m*3 8.9 C 3.2 km/h
657 19-11-2020 06:40:00 8.9 C 8.32 g/m*3 8.9 C 3.2 km/h
658 19-11-2020 06:45:00 8.9 C 8.32 g/m*3 7.69 C 8.1 km/h
659 19-11-2020 06:50:00 8.8 C 8.27 g/m*3 7.25 C 9.7 km/h
660 19-11-2020 06:55:00 8.8 C 8.18 g/m*3 8.8 C 4.8 km/h
661 19-11-2020 07:00:00 8.7 C 8.13 g/m*3 7.87 C 6.4 km/h
662 19-11-2020 07:05:00 8.6 C 8.08 g/m*3 7.75 C 6.4 km/h
663 19-11-2020 07:10:00 8.6 C 8.08 g/m*3 8.6 C 4.8 km/h
664 19-11-2020 07:15:00 8.5 C 8.03 g/m*3 8.5 C 4.8 km/h
665 19-11-2020 07:20:00 8.5 C 8.03 g/m*3 8.5 C 3.2 km/h
666 19-11-2020 07:25:00 8.5 C 8.03 g/m*3 8.5 C 3.2 km/h
667 19-11-2020 07:30:00 8.5 C 8.11 g/m*3 8.5 C 4.8 km/h
668 19-11-2020 07:35:00 8.5 C 8.11 g/m*3 8.5 C 4.8 km/h
669 19-11-2020 07:40:00 8.4 C 8.06 g/m*3 8.4 C 4.8 km/h
670 19-11-2020 07:45:00 8.4 C 8.06 g/m*3 8.4 C 4.8 km/h
671 19-11-2020 07:50:00 8.3 C 8.01 g/m*3 7.41 C 6.4 km/h
672 19-11-2020 07:55:00 8.2 C 7.87 g/m*3 8.2 C 4.8 km/h
673 19-11-2020 08:00:00 8.2 C 7.87 g/m*3 7.29 C 6.4 km/h
674 19-11-2020 08:05:00 8.2 C 7.87 g/m*3 8.2 C 4.8 km/h
675 19-11-2020 08:10:00 8.1 C 7.82 g/m*3 8.1 C 4.8 km/h
Sensor: Nr:Datum:Temp:Abs-Feuchte:Windchill:Wind:
Aussen-T/F 676 19-11-2020 08:15:00 8.1 C 7.82 g/m*3 7.17 C 6.4 km/h
677 19-11-2020 08:20:00 8 C 7.77 g/m*3 8 C 4.8 km/h
678 19-11-2020 08:25:00 7.9 C 7.8 g/m*3 6.94 C 6.4 km/h
679 19-11-2020 08:30:00 7.9 C 7.8 g/m*3 6.94 C 6.4 km/h
680 19-11-2020 08:35:00 7.8 C 7.67 g/m*3 6.83 C 6.4 km/h
681 19-11-2020 08:40:00 7.8 C 7.67 g/m*3 6.83 C 6.4 km/h
682 19-11-2020 08:45:00 7.8 C 7.67 g/m*3 6.4 C 8.1 km/h
683 19-11-2020 08:50:00 7.8 C 7.59 g/m*3 6.06 C 9.7 km/h
684 19-11-2020 08:55:00 7.8 C 7.59 g/m*3 6.06 C 9.7 km/h
685 19-11-2020 09:00:00 7.8 C 7.51 g/m*3 5.27 C 14.5 km/h
686 19-11-2020 09:05:00 7.8 C 7.51 g/m*3 6.4 C 8.1 km/h
687 19-11-2020 09:10:00 7.8 C 7.43 g/m*3 6.83 C 6.4 km/h
688 19-11-2020 09:15:00 7.7 C 7.38 g/m*3 5.65 C 11.3 km/h
689 19-11-2020 09:20:00 7.7 C 7.38 g/m*3 5.94 C 9.7 km/h
690 19-11-2020 09:25:00 7.6 C 7.41 g/m*3 6.6 C 6.4 km/h
691 19-11-2020 09:30:00 7.6 C 7.41 g/m*3 7.6 C 4.8 km/h
692 19-11-2020 09:35:00 7.6 C 7.41 g/m*3 7.6 C 4.8 km/h
693 19-11-2020 09:40:00 7.5 C 7.36 g/m*3 6.48 C 6.4 km/h
694 19-11-2020 09:45:00 7.5 C 7.36 g/m*3 6.05 C 8.1 km/h
695 19-11-2020 09:50:00 7.6 C 7.49 g/m*3 5.82 C 9.7 km/h
696 19-11-2020 09:55:00 7.7 C 7.46 g/m*3 6.28 C 8.1 km/h
697 19-11-2020 10:00:00 7.8 C 7.51 g/m*3 6.83 C 6.4 km/h
698 19-11-2020 10:05:00 7.9 C 7.56 g/m*3 6.94 C 6.4 km/h
699 19-11-2020 10:10:00 8 C 7.52 g/m*3 7.06 C 6.4 km/h
700 19-11-2020 10:15:00 8.1 C 7.57 g/m*3 8.1 C 4.8 km/h
Sensor: Nr:Datum:Temp:Abs-Feuchte:Windchill:Wind:
Aussen-T/F 701 19-11-2020 10:20:00 8.2 C 7.54 g/m*3 6.54 C 9.7 km/h
702 19-11-2020 10:25:00 8.3 C 7.59 g/m*3 6.99 C 8.1 km/h
703 19-11-2020 10:30:00 8.4 C 7.63 g/m*3 7.11 C 8.1 km/h
704 19-11-2020 10:35:00 8.7 C 7.78 g/m*3 7.87 C 6.4 km/h
705 19-11-2020 10:40:00 8.9 C 7.8 g/m*3 8.1 C 6.4 km/h
706 19-11-2020 10:45:00 9.2 C 7.77 g/m*3 7.73 C 9.7 km/h
707 19-11-2020 10:50:00 9.3 C 7.82 g/m*3 7.85 C 9.7 km/h
708 19-11-2020 10:55:00 9.4 C 7.87 g/m*3 8.28 C 8.1 km/h
709 19-11-2020 11:00:00 9.6 C 7.88 g/m*3 8.91 C 6.4 km/h
710 19-11-2020 11:05:00 9.6 C 7.88 g/m*3 8.52 C 8.1 km/h
711 19-11-2020 11:10:00 9.6 C 7.88 g/m*3 8.52 C 8.1 km/h
712 19-11-2020 11:15:00 9.6 C 7.88 g/m*3 8.91 C 6.4 km/h
713 19-11-2020 11:20:00 9.7 C 7.93 g/m*3 8.33 C 9.7 km/h
714 19-11-2020 11:25:00 9.7 C 7.93 g/m*3 7.61 C 14.5 km/h
715 19-11-2020 11:30:00 9.8 C 7.98 g/m*3 7.94 C 12.9 km/h
716 19-11-2020 11:35:00 9.7 C 7.93 g/m*3 8.63 C 8.1 km/h
717 19-11-2020 11:40:00 9.7 C 7.93 g/m*3 8.63 C 8.1 km/h
718 19-11-2020 11:45:00 9.7 C 8.02 g/m*3 8.06 C 11.3 km/h
719 19-11-2020 11:50:00 9.8 C 8.16 g/m*3 9.14 C 6.4 km/h
720 19-11-2020 11:55:00 9.7 C 8.11 g/m*3 9.7 C 4.8 km/h
721 19-11-2020 12:00:00 9.7 C 8.11 g/m*3 8.33 C 9.7 km/h
722 19-11-2020 12:05:00 9.6 C 8.15 g/m*3 7.94 C 11.3 km/h
723 19-11-2020 12:10:00 9.6 C 8.15 g/m*3 7.94 C 11.3 km/h
724 19-11-2020 12:15:00 9.6 C 8.24 g/m*3 9.6 C 4.8 km/h
725 19-11-2020 12:20:00 9.6 C 8.24 g/m*3 9.6 C 4.8 km/h
Sensor: Nr:Datum:Temp:Abs-Feuchte:Windchill:Wind:
Aussen-T/F 726 19-11-2020 12:25:00 9.5 C 8.19 g/m*3 8.4 C 8.1 km/h
727 19-11-2020 12:30:00 9.5 C 8.28 g/m*3 8.79 C 6.4 km/h
728 19-11-2020 12:35:00 9.5 C 8.28 g/m*3 8.79 C 6.4 km/h
729 19-11-2020 12:40:00 9.5 C 8.28 g/m*3 9.5 C 4.8 km/h
730 19-11-2020 12:45:00 9.6 C 8.34 g/m*3 9.6 C 4.8 km/h
731 19-11-2020 12:50:00 9.5 C 8.28 g/m*3 8.4 C 8.1 km/h
732 19-11-2020 12:55:00 9.6 C 8.34 g/m*3 9.6 C 4.8 km/h
733 19-11-2020 13:00:00 9.6 C 8.24 g/m*3 9.6 C 4.8 km/h
734 19-11-2020 13:05:00 9.6 C 8.15 g/m*3 7.48 C 14.5 km/h
735 19-11-2020 13:10:00 9.7 C 8.02 g/m*3 8.33 C 9.7 km/h
736 19-11-2020 13:15:00 9.7 C 7.93 g/m*3 7.61 C 14.5 km/h
737 19-11-2020 13:20:00 9.8 C 7.79 g/m*3 7.36 C 17.7 km/h
738 19-11-2020 13:25:00 9.9 C 7.56 g/m*3 7.66 C 16.1 km/h
739 19-11-2020 13:30:00 10 C 7.61 g/m*3 7.78 C 16.1 km/h
740 19-11-2020 13:35:00 10.1 C 7.47 g/m*3 7.73 C 17.7 km/h
741 19-11-2020 13:40:00 10.2 C 7.42 g/m*3 8.03 C 16.1 km/h
742 19-11-2020 13:45:00 10.2 C 7.33 g/m*3 8.03 C 16.1 km/h
743 19-11-2020 13:50:00 10.3 C 7.37 g/m*3 8.55 C 12.9 km/h
744 19-11-2020 13:55:00 10.3 C 7.47 g/m*3 9.04 C 9.7 km/h
745 19-11-2020 14:00:00 10.2 C 7.23 g/m*3 8.43 C 12.9 km/h
746 19-11-2020 14:05:00 10.3 C 7.37 g/m*3 8.34 C 14.5 km/h
747 19-11-2020 14:10:00 10.3 C 7.37 g/m*3 8.34 C 14.5 km/h
748 19-11-2020 14:15:00 10.3 C 7.47 g/m*3 8.16 C 16.1 km/h
749 19-11-2020 14:20:00 10.4 C 7.52 g/m*3 8.67 C 12.9 km/h
750 19-11-2020 14:25:00 10.6 C 7.61 g/m*3 8.71 C 14.5 km/h
Sensor: Nr:Datum:Temp:Abs-Feuchte:Windchill:Wind:
Aussen-T/F 751 19-11-2020 14:30:00 10.7 C 7.46 g/m*3 8.65 C 16.1 km/h
752 19-11-2020 14:35:00 10.7 C 7.46 g/m*3 9.26 C 11.3 km/h
753 19-11-2020 14:40:00 10.7 C 7.17 g/m*3 8.32 C 19.3 km/h
754 19-11-2020 14:45:00 10.8 C 7.22 g/m*3 8.78 C 16.1 km/h
755 19-11-2020 14:50:00 10.8 C 7.12 g/m*3 9.38 C 11.3 km/h
756 19-11-2020 14:55:00 10.9 C 6.86 g/m*3 8.58 C 19.3 km/h
757 19-11-2020 15:00:00 11 C 7.11 g/m*3 8.86 C 17.7 km/h
758 19-11-2020 15:05:00 11.1 C 6.85 g/m*3 11.1 C 12.9 km/h
759 19-11-2020 15:10:00 11.2 C 6.99 g/m*3 11.2 C 11.3 km/h
760 19-11-2020 15:15:00 11.1 C 7.15 g/m*3 11.1 C 11.3 km/h
761 19-11-2020 15:20:00 11.1 C 7.05 g/m*3 11.1 C 14.5 km/h
762 19-11-2020 15:25:00 10.9 C 7.06 g/m*3 9.28 C 12.9 km/h
763 19-11-2020 15:30:00 10.9 C 7.16 g/m*3 9.08 C 14.5 km/h
764 19-11-2020 15:35:00 10.8 C 7.22 g/m*3 9.93 C 8.1 km/h
765 19-11-2020 15:40:00 10.7 C 7.17 g/m*3 9.26 C 11.3 km/h
766 19-11-2020 15:45:00 10.7 C 7.27 g/m*3 9.81 C 8.1 km/h
767 19-11-2020 15:50:00 10.6 C 7.32 g/m*3 10.06 C 6.4 km/h
768 19-11-2020 15:55:00 10.6 C 7.32 g/m*3 9.69 C 8.1 km/h
769 19-11-2020 16:00:00 10.4 C 7.32 g/m*3 8.9 C 11.3 km/h
770 19-11-2020 16:05:00 10.4 C 7.42 g/m*3 8.9 C 11.3 km/h
771 19-11-2020 16:10:00 10.3 C 7.37 g/m*3 9.04 C 9.7 km/h
772 19-11-2020 16:15:00 10.3 C 7.47 g/m*3 9.34 C 8.1 km/h
773 19-11-2020 16:20:00 10.2 C 7.42 g/m*3 8.66 C 11.3 km/h
774 19-11-2020 16:25:00 10.2 C 7.23 g/m*3 8.43 C 12.9 km/h
775 19-11-2020 16:30:00 10.3 C 7.18 g/m*3 9.34 C 8.1 km/h
Sensor: Nr:Datum:Temp:Abs-Feuchte:Windchill:Wind:
Aussen-T/F 776 19-11-2020 16:35:00 10.4 C 7.13 g/m*3 8.47 C 14.5 km/h
777 19-11-2020 16:40:00 10.4 C 7.23 g/m*3 8.67 C 12.9 km/h
778 19-11-2020 16:45:00 10.3 C 7.37 g/m*3 8.34 C 14.5 km/h
779 19-11-2020 16:50:00 10.2 C 7.42 g/m*3 8.92 C 9.7 km/h
780 19-11-2020 16:55:00 10 C 7.52 g/m*3 8.42 C 11.3 km/h
781 19-11-2020 17:00:00 9.8 C 7.42 g/m*3 9.8 C 4.8 km/h
782 19-11-2020 17:05:00 9.7 C 7.47 g/m*3 9.7 C 4.8 km/h
783 19-11-2020 17:10:00 9.7 C 7.56 g/m*3 9.7 C 1.6 km/h
784 19-11-2020 17:15:00 9.6 C 7.51 g/m*3 9.6 C 4.8 km/h
785 19-11-2020 17:20:00 9.5 C 7.55 g/m*3 9.5 C 0 km/h
786 19-11-2020 17:25:00 9.4 C 7.6 g/m*3 9.4 C 1.6 km/h
787 19-11-2020 17:30:00 9.3 C 7.55 g/m*3 9.3 C 3.2 km/h
788 19-11-2020 17:35:00 9.3 C 7.55 g/m*3 9.3 C 4.8 km/h
789 19-11-2020 17:40:00 9.3 C 7.55 g/m*3 8.56 C 6.4 km/h
790 19-11-2020 17:45:00 9.2 C 7.5 g/m*3 9.2 C 1.6 km/h
791 19-11-2020 17:50:00 9.2 C 7.68 g/m*3 9.2 C 0 km/h
792 19-11-2020 17:55:00 9.2 C 7.77 g/m*3 9.2 C 1.6 km/h
793 19-11-2020 18:00:00 9.2 C 7.77 g/m*3 9.2 C 0 km/h
794 19-11-2020 18:05:00 9.1 C 7.9 g/m*3 9.1 C 1.6 km/h
795 19-11-2020 18:10:00 8.9 C 7.71 g/m*3 8.9 C 3.2 km/h
796 19-11-2020 18:15:00 8.8 C 7.75 g/m*3 8.8 C 4.8 km/h
797 19-11-2020 18:20:00 8.7 C 7.7 g/m*3 8.7 C 3.2 km/h
798 19-11-2020 18:25:00 8.7 C 7.78 g/m*3 8.7 C 4.8 km/h
799 19-11-2020 18:30:00 8.6 C 7.73 g/m*3 7.34 C 8.1 km/h
800 19-11-2020 18:35:00 8.4 C 7.63 g/m*3 8.4 C 1.6 km/h
Sensor: Nr:Datum:Temp:Abs-Feuchte:Windchill:Wind:
Aussen-T/F 801 19-11-2020 18:40:00 8.4 C 7.63 g/m*3 7.52 C 6.4 km/h
802 19-11-2020 18:45:00 8.3 C 7.59 g/m*3 8.3 C 4.8 km/h
803 19-11-2020 18:50:00 8.3 C 7.59 g/m*3 7.41 C 6.4 km/h
804 19-11-2020 18:55:00 8.2 C 7.62 g/m*3 8.2 C 4.8 km/h
805 19-11-2020 19:00:00 8.1 C 7.57 g/m*3 8.1 C 1.6 km/h
806 19-11-2020 19:05:00 8.1 C 7.57 g/m*3 7.17 C 6.4 km/h
807 19-11-2020 19:10:00 8.1 C 7.57 g/m*3 8.1 C 4.8 km/h
808 19-11-2020 19:15:00 8.1 C 7.57 g/m*3 6.75 C 8.1 km/h
809 19-11-2020 19:20:00 8.1 C 7.57 g/m*3 5.87 C 12.9 km/h
810 19-11-2020 19:25:00 8.1 C 7.66 g/m*3 8.1 C 4.8 km/h
811 19-11-2020 19:30:00 8 C 7.61 g/m*3 7.06 C 6.4 km/h
812 19-11-2020 19:35:00 8 C 7.61 g/m*3 6.3 C 9.7 km/h
813 19-11-2020 19:40:00 7.9 C 7.56 g/m*3 6.94 C 6.4 km/h
814 19-11-2020 19:45:00 7.9 C 7.56 g/m*3 7.9 C 1.6 km/h
815 19-11-2020 19:50:00 7.9 C 7.56 g/m*3 7.9 C 4.8 km/h
816 19-11-2020 19:55:00 7.9 C 7.56 g/m*3 7.9 C 4.8 km/h
817 19-11-2020 20:00:00 7.9 C 7.56 g/m*3 6.94 C 6.4 km/h
818 19-11-2020 20:05:00 7.9 C 7.56 g/m*3 7.9 C 3.2 km/h
819 19-11-2020 20:10:00 7.9 C 7.56 g/m*3 7.9 C 1.6 km/h
820 19-11-2020 20:15:00 7.9 C 7.64 g/m*3 7.9 C 3.2 km/h
821 19-11-2020 20:20:00 7.9 C 7.64 g/m*3 7.9 C 0 km/h
822 19-11-2020 20:25:00 7.9 C 7.64 g/m*3 7.9 C 0 km/h
823 19-11-2020 20:30:00 7.8 C 7.59 g/m*3 7.8 C 0 km/h
824 19-11-2020 20:35:00 7.7 C 7.54 g/m*3 7.7 C 1.6 km/h
825 19-11-2020 20:40:00 7.6 C 7.49 g/m*3 7.6 C 4.8 km/h
Sensor: Nr:Datum:Temp:Abs-Feuchte:Windchill:Wind:
Aussen-T/F 826 19-11-2020 20:45:00 7.4 C 7.4 g/m*3 7.4 C 1.6 km/h
827 19-11-2020 20:50:00 7.3 C 7.35 g/m*3 7.3 C 3.2 km/h
828 19-11-2020 20:55:00 7.2 C 7.3 g/m*3 7.2 C 3.2 km/h
829 19-11-2020 21:00:00 7 C 7.21 g/m*3 7 C 3.2 km/h
830 19-11-2020 21:05:00 6.9 C 7.16 g/m*3 6.9 C 4.8 km/h
831 19-11-2020 21:10:00 6.8 C 7.11 g/m*3 6.8 C 4.8 km/h
832 19-11-2020 21:15:00 6.8 C 7.11 g/m*3 6.8 C 1.6 km/h
833 19-11-2020 21:20:00 6.8 C 7.11 g/m*3 6.8 C 1.6 km/h
834 19-11-2020 21:25:00 6.7 C 7.14 g/m*3 6.7 C 3.2 km/h
835 19-11-2020 21:30:00 6.7 C 7.14 g/m*3 6.7 C 3.2 km/h
836 19-11-2020 21:35:00 6.6 C 7.1 g/m*3 6.6 C 1.6 km/h
837 19-11-2020 21:40:00 6.6 C 7.1 g/m*3 6.6 C 3.2 km/h
838 19-11-2020 21:45:00 6.4 C 6.93 g/m*3 6.4 C 3.2 km/h
839 19-11-2020 21:50:00 6.3 C 6.88 g/m*3 6.3 C 1.6 km/h
840 19-11-2020 21:55:00 6.2 C 6.91 g/m*3 6.2 C 1.6 km/h
841 19-11-2020 22:00:00 6.1 C 6.79 g/m*3 6.1 C 4.8 km/h
842 19-11-2020 22:05:00 5.9 C 6.71 g/m*3 5.9 C 4.8 km/h
843 19-11-2020 22:10:00 5.8 C 6.66 g/m*3 5.8 C 3.2 km/h
844 19-11-2020 22:15:00 5.8 C 6.73 g/m*3 5.8 C 4.8 km/h
845 19-11-2020 22:20:00 5.7 C 6.69 g/m*3 5.7 C 3.2 km/h
846 19-11-2020 22:25:00 5.6 C 6.65 g/m*3 5.6 C 1.6 km/h
847 19-11-2020 22:30:00 5.4 C 6.56 g/m*3 5.4 C 3.2 km/h
848 19-11-2020 22:35:00 5.3 C 6.52 g/m*3 5.3 C 3.2 km/h
849 19-11-2020 22:40:00 5.3 C 6.52 g/m*3 5.3 C 1.6 km/h
850 19-11-2020 22:45:00 5.3 C 6.52 g/m*3 5.3 C 3.2 km/h
Sensor: Nr:Datum:Temp:Abs-Feuchte:Windchill:Wind:
Aussen-T/F 851 19-11-2020 22:50:00 5.3 C 6.52 g/m*3 3.94 C 6.4 km/h
852 19-11-2020 22:55:00 5.3 C 6.58 g/m*3 5.3 C 4.8 km/h
853 19-11-2020 23:00:00 5.4 C 6.63 g/m*3 5.4 C 1.6 km/h
854 19-11-2020 23:05:00 5.4 C 6.63 g/m*3 5.4 C 0 km/h
855 19-11-2020 23:10:00 5.5 C 6.67 g/m*3 5.5 C 3.2 km/h
856 19-11-2020 23:15:00 5.6 C 6.72 g/m*3 5.6 C 4.8 km/h
857 19-11-2020 23:20:00 5.6 C 6.72 g/m*3 5.6 C 0 km/h
858 19-11-2020 23:25:00 5.6 C 6.72 g/m*3 5.6 C 0 km/h
859 19-11-2020 23:30:00 5.4 C 6.63 g/m*3 5.4 C 0 km/h
860 19-11-2020 23:35:00 5.3 C 6.58 g/m*3 5.3 C 1.6 km/h
861 19-11-2020 23:40:00 5.3 C 6.58 g/m*3 5.3 C 1.6 km/h
862 19-11-2020 23:45:00 5.3 C 6.58 g/m*3 5.3 C 0 km/h
863 19-11-2020 23:50:00 5.3 C 6.58 g/m*3 5.3 C 0 km/h
864 19-11-2020 23:55:00 5.3 C 6.58 g/m*3 5.3 C 3.2 km/h

Legende:
   Min
   Max


Maximal/Minimal-Werte vom 23.02.2003 - 20.11.2020

Sensor Min Max Avg
Temp
(Aussen-T/F)
-16.4 °C
20-12-2009  01:30:01
40.4 °C
25-07-2019  16:20:00
11.31 °C

Die Daten stammen von einer Davis Vantage Pro 2 Wetter-Station und werden unter Linux mit der Software wview2wettercgi und aufbereitet. Alle Angaben erfolgen ohne Gewähr für ihre Vollständigkeit oder Richtigkeit.
Kontakt: Rainer Krienke krienke@uni-koblenz.de . Meine Webseiten an der Uni Koblenz oder privat.
Version: $Revision: 0.78 $